Time;durP1;ratioP1;P1;durP2;ratioP2;P2;SDS_P1;SDS_P2;PMS_P1;PMS_P2;Temp;Humidity;BMP_temperature;BMP_pressure;BME280_temperature;BME280_humidity;BME280_pressure;Samples;Min_cycle;Max_cycle;Signal;HPM_P1;HPM_P2
2024/04/23 00:00:22;;;;;;;60.90;6.63;;;;;;;;;;5348254;26;20354;-70
2024/04/23 00:02:48;;;;;;;59.45;6.47;;;;;;;;;;5348319;26;20296;-70
2024/04/23 00:05:17;;;;;;;59.67;6.07;;;;;;;;;;5348221;26;20287;-70
2024/04/23 00:07:43;;;;;;;59.80;6.03;;;;;;;;;;5347559;26;20248;-70
2024/04/23 00:10:14;;;;;;;61.60;6.47;;;;;;;;;;5347814;26;20283;-70
2024/04/23 00:12:41;;;;;;;60.90;6.28;;;;;;;;;;5347870;26;20351;-70
2024/04/23 00:15:09;;;;;;;60.95;6.63;;;;;;;;;;5347498;26;20604;-70
2024/04/23 00:17:36;;;;;;;59.65;6.30;;;;;;;;;;5346724;26;20749;-70
2024/04/23 00:20:04;;;;;;;60.28;6.40;;;;;;;;;;5347815;26;20253;-70
2024/04/23 00:22:30;;;;;;;61.75;6.53;;;;;;;;;;5347591;26;20334;-68
2024/04/23 00:24:59;;;;;;;61.72;6.95;;;;;;;;;;5347559;26;20296;-67
2024/04/23 00:27:28;;;;;;;60.95;6.90;;;;;;;;;;5333112;26;20350;-70
2024/04/23 00:29:56;;;;;;;58.95;5.93;;;;;;;;;;5347368;26;20283;-70
2024/04/23 00:32:23;;;;;;;61.08;6.95;;;;;;;;;;5347555;26;20245;-70
2024/04/23 00:34:51;;;;;;;59.63;6.80;;;;;;;;;;5347544;26;20245;-70
2024/04/23 00:37:18;;;;;;;59.47;6.07;;;;;;;;;;5346602;26;20245;-70
2024/04/23 00:39:46;;;;;;;60.92;6.80;;;;;;;;;;5347347;26;20342;-70
2024/04/23 00:42:13;;;;;;;60.20;6.80;;;;;;;;;;5347286;26;20779;-70
2024/04/23 00:44:44;;;;;;;60.05;6.50;;;;;;;;;;5347309;26;20284;-70
2024/04/23 00:47:10;;;;;;;61.15;6.55;;;;;;;;;;5346698;26;20323;-70
2024/04/23 00:49:39;;;;;;;59.90;6.57;;;;;;;;;;5347266;26;20245;-70
2024/04/23 00:52:05;;;;;;;61.78;7.00;;;;;;;;;;5347556;26;20300;-70
2024/04/23 00:54:34;;;;;;;64.38;6.82;;;;;;;;;;5347402;26;20241;-70
2024/04/23 00:57:01;;;;;;;60.78;7.25;;;;;;;;;;5346747;26;20245;-70
2024/04/23 00:59:31;;;;;;;60.33;7.10;;;;;;;;;;5333347;26;20331;-70
2024/04/23 01:02:00;;;;;;;59.38;6.32;;;;;;;;;;5347140;26;20346;-70
2024/04/23 01:04:28;;;;;;;61.33;6.65;;;;;;;;;;5347442;26;20292;-70
2024/04/23 01:06:55;;;;;;;59.42;6.35;;;;;;;;;;5346503;26;20346;-70
2024/04/23 01:09:24;;;;;;;59.75;5.85;;;;;;;;;;5347025;26;20395;-70
2024/04/23 01:11:50;;;;;;;59.65;6.90;;;;;;;;;;5347140;26;20313;-70
2024/04/23 01:14:19;;;;;;;59.55;6.55;;;;;;;;;;5346687;26;20241;-70
2024/04/23 01:16:46;;;;;;;62.88;6.00;;;;;;;;;;5347001;26;20252;-70
2024/04/23 01:19:20;;;;;;;60.75;7.13;;;;;;;;;;5347015;26;20249;-70
2024/04/23 01:21:51;;;;;;;63.22;7.18;;;;;;;;;;5347849;26;20249;-70
2024/04/23 01:24:23;;;;;;;60.53;6.95;;;;;;;;;;5348012;26;20748;-70
2024/04/23 01:26:52;;;;;;;61.13;7.50;;;;;;;;;;5348198;26;20354;-69
2024/04/23 01:29:21;;;;;;;62.75;7.70;;;;;;;;;;5345713;26;20241;-70
2024/04/23 01:31:47;;;;;;;63.78;7.70;;;;;;;;;;5347878;26;20354;-70
2024/04/23 01:34:16;;;;;;;62.47;7.18;;;;;;;;;;5347646;26;20241;-69
2024/04/23 01:36:42;;;;;;;61.80;7.60;;;;;;;;;;5347425;26;20253;-70
2024/04/23 01:39:11;;;;;;;60.83;7.07;;;;;;;;;;5347189;26;20249;-70
2024/04/23 01:41:38;;;;;;;59.10;5.80;;;;;;;;;;5347199;26;20241;-69
2024/04/23 01:44:09;;;;;;;60.28;6.60;;;;;;;;;;5347025;26;20310;-70
2024/04/23 01:46:36;;;;;;;60.58;7.15;;;;;;;;;;5348365;26;20741;-69
2024/04/23 01:49:05;;;;;;;60.13;7.05;;;;;;;;;;5348108;26;20343;-69
2024/04/23 01:51:31;;;;;;;61.30;7.28;;;;;;;;;;5348723;26;20751;-69
2024/04/23 01:54:00;;;;;;;61.83;7.13;;;;;;;;;;5348679;26;20245;-70
2024/04/23 01:56:26;;;;;;;62.00;8.18;;;;;;;;;;5347723;26;20442;-69
2024/04/23 01:58:55;;;;;;;62.08;7.30;;;;;;;;;;5348436;26;20297;-69
2024/04/23 02:01:24;;;;;;;61.15;7.00;;;;;;;;;;5348499;26;20290;-70
2024/04/23 02:03:54;;;;;;;60.10;6.85;;;;;;;;;;5347791;26;20372;-69
2024/04/23 02:06:20;;;;;;;61.78;6.97;;;;;;;;;;5347767;26;20279;-69
2024/04/23 02:08:49;;;;;;;60.95;7.32;;;;;;;;;;5346407;26;20249;-70
2024/04/23 02:11:16;;;;;;;60.80;7.07;;;;;;;;;;5346935;26;20256;-69
2024/04/23 02:13:45;;;;;;;60.20;7.32;;;;;;;;;;5346532;26;20292;-69
2024/04/23 02:16:11;;;;;;;60.47;7.28;;;;;;;;;;5346068;26;20679;-70
2024/04/23 02:18:42;;;;;;;61.78;6.65;;;;;;;;;;5345329;26;20272;-69
2024/04/23 02:21:08;;;;;;;61.25;6.30;;;;;;;;;;5345497;26;20323;-70
2024/04/23 02:23:37;;;;;;;61.35;7.07;;;;;;;;;;5348456;26;20237;-70
2024/04/23 02:26:04;;;;;;;61.53;7.55;;;;;;;;;;5348236;26;20348;-70
2024/04/23 02:28:32;;;;;;;60.05;6.75;;;;;;;;;;5347834;26;20288;-70
2024/04/23 02:30:58;;;;;;;60.72;6.88;;;;;;;;;;5347557;26;20241;-69
2024/04/23 02:33:27;;;;;;;60.05;6.22;;;;;;;;;;5347043;26;20257;-69
2024/04/23 02:35:56;;;;;;;61.05;7.25;;;;;;;;;;5347362;26;20276;-69
2024/04/23 02:38:25;;;;;;;61.38;6.82;;;;;;;;;;5346916;26;20594;-69
2024/04/23 02:40:51;;;;;;;62.40;7.38;;;;;;;;;;5347713;26;20364;-69
2024/04/23 02:43:20;;;;;;;60.10;6.75;;;;;;;;;;5350421;26;20241;-69
2024/04/23 02:45:46;;;;;;;64.22;7.40;;;;;;;;;;5350593;26;20680;-70
2024/04/23 02:48:15;;;;;;;61.22;6.95;;;;;;;;;;5350357;26;20261;-70
2024/04/23 02:50:41;;;;;;;62.65;7.22;;;;;;;;;;5351183;26;20256;-69
2024/04/23 02:53:12;;;;;;;59.95;7.25;;;;;;;;;;5350630;26;20632;-70
2024/04/23 02:55:38;;;;;;;61.15;6.50;;;;;;;;;;5350744;26;20335;-69
2024/04/23 02:58:07;;;;;;;61.65;7.45;;;;;;;;;;5350958;26;20249;-69
2024/04/23 03:00:33;;;;;;;64.50;7.45;;;;;;;;;;5351231;26;20296;-70
2024/04/23 03:03:02;;;;;;;65.20;8.00;;;;;;;;;;5351476;26;20249;-69
2024/04/23 03:05:31;;;;;;;61.17;7.30;;;;;;;;;;5350862;26;20360;-70
2024/04/23 03:07:57;;;;;;;62.35;7.30;;;;;;;;;;5349371;26;20305;-69
2024/04/23 03:10:28;;;;;;;61.95;7.90;;;;;;;;;;5350019;26;20280;-70
2024/04/23 03:12:54;;;;;;;63.78;8.10;;;;;;;;;;5350845;26;20423;-69
2024/04/23 03:15:23;;;;;;;61.88;7.95;;;;;;;;;;5350792;26;20289;-70
2024/04/23 03:17:49;;;;;;;61.05;7.35;;;;;;;;;;5350871;26;20257;-69
2024/04/23 03:20:18;;;;;;;61.45;7.00;;;;;;;;;;5350335;26;20342;-69
2024/04/23 03:22:44;;;;;;;61.65;7.45;;;;;;;;;;5351289;26;20331;-70
2024/04/23 03:25:13;;;;;;;60.55;6.40;;;;;;;;;;5350481;26;20253;-70
2024/04/23 03:27:41;;;;;;;62.03;7.53;;;;;;;;;;5349817;26;20353;-70
2024/04/23 03:30:10;;;;;;;64.30;7.70;;;;;;;;;;5350438;26;20245;-69
2024/04/23 03:32:36;;;;;;;61.28;7.13;;;;;;;;;;5350373;26;20343;-70
2024/04/23 03:35:05;;;;;;;60.78;7.32;;;;;;;;;;5350163;26;20883;-70
2024/04/23 03:37:34;;;;;;;61.83;7.90;;;;;;;;;;5349534;26;20362;-69
2024/04/23 03:40:02;;;;;;;63.55;7.60;;;;;;;;;;5349938;26;20245;-70
2024/04/23 03:42:31;;;;;;;61.03;7.20;;;;;;;;;;5349655;26;20245;-69
2024/04/23 03:45:02;;;;;;;62.47;8.18;;;;;;;;;;5348841;26;20708;-70
2024/04/23 03:47:31;;;;;;;64.65;8.38;;;;;;;;;;5350211;26;20806;-70
2024/04/23 03:49:57;;;;;;;61.97;7.80;;;;;;;;;;5349961;26;20241;-70
2024/04/23 03:52:27;;;;;;;61.58;8.50;;;;;;;;;;5349737;26;20757;-69
2024/04/23 03:54:53;;;;;;;62.63;7.78;;;;;;;;;;5349169;26;20241;-70
2024/04/23 03:57:22;;;;;;;59.85;6.75;;;;;;;;;;5349687;26;20664;-70
2024/04/23 03:59:48;;;;;;;62.17;7.80;;;;;;;;;;5350084;26;20346;-69
2024/04/23 04:07:48;;;;;;;61.83;7.88;;;;;;;;;;5351959;26;20350;-70
2024/04/23 04:10:17;;;;;;;61.95;7.75;;;;;;;;;;5349541;26;20347;-69
2024/04/23 04:12:46;;;;;;;63.38;8.35;;;;;;;;;;5349563;26;20248;-70
2024/04/23 04:15:15;;;;;;;63.35;7.95;;;;;;;;;;5349222;26;20249;-69
2024/04/23 04:17:43;;;;;;;64.53;9.73;;;;;;;;;;5348847;26;20359;-70
2024/04/23 04:20:12;;;;;;;63.10;8.10;;;;;;;;;;5349082;26;20283;-69
2024/04/23 04:22:38;;;;;;;63.55;8.65;;;;;;;;;;5348680;26;20241;-70
2024/04/23 04:25:08;;;;;;;64.28;9.52;;;;;;;;;;5348320;26;20305;-70
2024/04/23 04:27:34;;;;;;;64.07;9.50;;;;;;;;;;5345591;26;20241;-70
2024/04/23 04:30:03;;;;;;;64.95;9.43;;;;;;;;;;5344975;26;20241;-70
2024/04/23 04:32:29;;;;;;;65.53;9.15;;;;;;;;;;5345500;26;20257;-70
2024/04/23 04:35:00;;;;;;;65.00;9.20;;;;;;;;;;5345242;26;20242;-70
2024/04/23 04:37:32;;;;;;;63.97;8.75;;;;;;;;;;5345142;26;20764;-71
2024/04/23 04:40:01;;;;;;;63.92;9.15;;;;;;;;;;5344706;26;20285;-71
2024/04/23 04:42:27;;;;;;;66.18;9.05;;;;;;;;;;5345488;26;20342;-71
2024/04/23 04:44:56;;;;;;;63.72;9.50;;;;;;;;;;5345435;26;20582;-71
2024/04/23 04:47:22;;;;;;;61.10;8.77;;;;;;;;;;5344976;26;20261;-70
2024/04/23 04:49:50;;;;;;;62.33;7.85;;;;;;;;;;5345461;26;20237;-70
2024/04/23 04:52:19;;;;;;;63.25;10.50;;;;;;;;;;5345396;26;20249;-70
2024/04/23 04:54:48;;;;;;;65.47;8.98;;;;;;;;;;5345549;26;20241;-70
2024/04/23 04:57:14;;;;;;;63.80;8.50;;;;;;;;;;5345131;26;20291;-70
2024/04/23 04:59:43;;;;;;;64.88;8.20;;;;;;;;;;5346069;26;20249;-70
2024/04/23 05:02:09;;;;;;;63.55;9.48;;;;;;;;;;5345407;26;20408;-70
2024/04/23 05:04:38;;;;;;;62.85;8.85;;;;;;;;;;5343591;26;20302;-70
2024/04/23 05:07:04;;;;;;;63.65;9.05;;;;;;;;;;5345565;26;20559;-70
2024/04/23 05:09:35;;;;;;;64.97;7.95;;;;;;;;;;5345517;26;20370;-70
2024/04/23 05:12:02;;;;;;;65.35;8.60;;;;;;;;;;5345386;26;20682;-70
2024/04/23 05:14:31;;;;;;;63.72;8.85;;;;;;;;;;5344949;26;20291;-70
2024/04/23 05:16:57;;;;;;;63.28;9.15;;;;;;;;;;5344843;26;20291;-70
2024/04/23 05:19:26;;;;;;;66.22;9.80;;;;;;;;;;5345192;26;20289;-70
2024/04/23 05:21:52;;;;;;;64.78;9.48;;;;;;;;;;5345110;26;20656;-70
2024/04/23 05:24:20;;;;;;;63.92;9.65;;;;;;;;;;5344917;26;20249;-70
2024/04/23 05:26:49;;;;;;;64.30;9.50;;;;;;;;;;5344936;26;20358;-70
2024/04/23 05:29:18;;;;;;;64.97;10.48;;;;;;;;;;5344845;26;20238;-70
2024/04/23 05:34:32;;;;;;;63.83;10.05;;;;;;;;;;5347308;26;20798;-70
2024/04/23 05:37:00;;;;;;;63.35;8.70;;;;;;;;;;5344412;26;20709;-71
2024/04/23 05:39:29;;;;;;;65.35;9.13;;;;;;;;;;5345039;26;20371;-71
2024/04/23 05:42:00;;;;;;;62.55;8.85;;;;;;;;;;5345112;26;20257;-71
2024/04/23 05:44:29;;;;;;;67.95;10.98;;;;;;;;;;5344866;26;20288;-71
2024/04/23 05:46:58;;;;;;;64.57;9.10;;;;;;;;;;5344587;26;20292;-71
2024/04/23 05:49:43;;;;;;;62.80;9.73;;;;;;;;;;5344657;26;20350;-70
2024/04/23 05:52:30;;;;;;;65.18;9.32;;;;;;;;;;5345161;26;20244;-70
2024/04/23 05:55:15;;;;;;;70.25;10.05;;;;;;;;;;5344627;26;20249;-70
2024/04/23 05:57:47;;;;;;;65.72;10.63;;;;;;;;;;5344287;26;20335;-70
2024/04/23 06:00:13;;;;;;;67.57;10.80;;;;;;;;;;5344652;26;20713;-71
2024/04/23 06:02:42;;;;;;;67.63;11.05;;;;;;;;;;5344021;26;20374;-70
2024/04/23 06:05:08;;;;;;;65.60;11.05;;;;;;;;;;5343970;26;20836;-70
2024/04/23 06:07:37;;;;;;;65.78;9.85;;;;;;;;;;5343301;26;20261;-71
2024/04/23 06:10:03;;;;;;;64.20;9.95;;;;;;;;;;5343796;26;20748;-70
2024/04/23 06:12:32;;;;;;;64.63;9.27;;;;;;;;;;5343644;26;20617;-70
2024/04/23 06:15:01;;;;;;;65.20;9.68;;;;;;;;;;5343914;26;20346;-70
2024/04/23 06:17:34;;;;;;;64.80;9.80;;;;;;;;;;5345886;26;20249;-71
2024/04/23 06:20:00;;;;;;;64.35;9.77;;;;;;;;;;5347169;26;20252;-71
2024/04/23 06:22:30;;;;;;;65.03;9.60;;;;;;;;;;5347068;26;20359;-71
2024/04/23 06:24:57;;;;;;;61.75;9.10;;;;;;;;;;5347014;26;20346;-71
2024/04/23 06:27:26;;;;;;;64.97;9.30;;;;;;;;;;5346670;26;20244;-71
2024/04/23 06:29:53;;;;;;;63.47;9.18;;;;;;;;;;5346972;26;20245;-71
2024/04/23 06:32:25;;;;;;;63.67;8.95;;;;;;;;;;5347033;26;20648;-71
2024/04/23 06:34:51;;;;;;;65.85;9.45;;;;;;;;;;5347166;26;20350;-71
2024/04/23 06:37:20;;;;;;;63.55;9.00;;;;;;;;;;5346623;26;20331;-71
2024/04/23 06:39:46;;;;;;;63.60;9.82;;;;;;;;;;5346995;26;20244;-70
2024/04/23 06:42:14;;;;;;;63.38;9.65;;;;;;;;;;5347295;26;20308;-70
2024/04/23 06:44:41;;;;;;;62.15;9.02;;;;;;;;;;5346544;26;20293;-70
2024/04/23 06:47:09;;;;;;;63.47;9.88;;;;;;;;;;5346458;26;20314;-70
2024/04/23 06:49:43;;;;;;;63.13;8.30;;;;;;;;;;5347555;26;20296;-70
2024/04/23 06:52:10;;;;;;;63.80;9.75;;;;;;;;;;5346717;26;20283;-70
2024/04/23 06:54:39;;;;;;;64.07;10.35;;;;;;;;;;5346837;26;20283;-70
2024/04/23 06:57:06;;;;;;;63.53;9.27;;;;;;;;;;5346206;26;20388;-70
2024/04/23 06:59:35;;;;;;;62.15;8.73;;;;;;;;;;5346446;26;20241;-70
2024/04/23 07:02:01;;;;;;;64.60;8.65;;;;;;;;;;5346433;26;20241;-70
2024/04/23 07:04:30;;;;;;;63.45;9.80;;;;;;;;;;5346596;26;20589;-70
2024/04/23 07:07:00;;;;;;;62.20;8.35;;;;;;;;;;5346502;26;20383;-70
2024/04/23 07:09:29;;;;;;;64.05;8.75;;;;;;;;;;5346858;26;20283;-70
2024/04/23 07:11:58;;;;;;;62.88;8.32;;;;;;;;;;5346749;26;20241;-70
2024/04/23 07:14:24;;;;;;;61.65;8.00;;;;;;;;;;5346586;26;20280;-70
2024/04/23 07:16:52;;;;;;;61.97;7.95;;;;;;;;;;5345966;26;20292;-70
2024/04/23 07:19:21;;;;;;;64.22;9.73;;;;;;;;;;5346665;26;20688;-70
2024/04/23 07:21:47;;;;;;;62.83;8.73;;;;;;;;;;5346846;26;20598;-70
2024/04/23 07:24:19;;;;;;;65.95;9.05;;;;;;;;;;5346644;26;20241;-70
2024/04/23 07:26:45;;;;;;;63.78;7.60;;;;;;;;;;5332905;26;20367;-70
2024/04/23 07:29:14;;;;;;;63.78;8.25;;;;;;;;;;5345125;26;20245;-68
2024/04/23 07:31:40;;;;;;;60.92;7.53;;;;;;;;;;5346394;26;20298;-70
2024/04/23 07:34:09;;;;;;;60.60;7.68;;;;;;;;;;5346473;26;20373;-70
2024/04/23 07:36:35;;;;;;;61.35;7.10;;;;;;;;;;5346273;26;20305;-70
2024/04/23 07:39:04;;;;;;;60.08;7.20;;;;;;;;;;5346276;26;20609;-70
2024/04/23 07:41:32;;;;;;;61.28;7.68;;;;;;;;;;5346117;26;20252;-70
2024/04/23 07:44:01;;;;;;;60.40;7.20;;;;;;;;;;5346635;26;20245;-70
2024/04/23 07:46:27;;;;;;;61.47;7.37;;;;;;;;;;5345795;26;20308;-70
2024/04/23 07:48:56;;;;;;;60.37;7.07;;;;;;;;;;5345927;26;20585;-70
2024/04/23 07:51:22;;;;;;;60.65;7.53;;;;;;;;;;5345920;26;20531;-70
2024/04/23 07:53:51;;;;;;;60.38;7.22;;;;;;;;;;5346149;26;20346;-71
2024/04/23 07:56:18;;;;;;;60.55;6.35;;;;;;;;;;5345967;26;20343;-70
2024/04/23 07:58:49;;;;;;;59.30;6.10;;;;;;;;;;5346014;26;20292;-70
2024/04/23 08:01:16;;;;;;;59.17;5.68;;;;;;;;;;5346135;26;20866;-70
2024/04/23 08:03:45;;;;;;;60.80;6.70;;;;;;;;;;5346250;26;20245;-70
2024/04/23 08:06:11;;;;;;;59.77;6.47;;;;;;;;;;5345796;26;20476;-70
2024/04/23 08:08:40;;;;;;;59.77;7.00;;;;;;;;;;5345305;26;20487;-70
2024/04/23 08:11:06;;;;;;;59.97;7.10;;;;;;;;;;5346128;26;20523;-71
2024/04/23 08:13:35;;;;;;;59.70;6.00;;;;;;;;;;5346112;26;20479;-71
2024/04/23 08:16:06;;;;;;;59.57;5.93;;;;;;;;;;5346274;26;20546;-71
2024/04/23 08:18:34;;;;;;;60.73;6.60;;;;;;;;;;5345797;26;20463;-71
2024/04/23 08:21:05;;;;;;;61.30;6.50;;;;;;;;;;5346729;26;20471;-70
2024/04/23 08:23:32;;;;;;;62.27;6.53;;;;;;;;;;5346310;26;20622;-71
2024/04/23 08:26:08;;;;;;;60.37;6.47;;;;;;;;;;5346247;26;20482;-71
2024/04/23 08:28:34;;;;;;;60.33;6.23;;;;;;;;;;5346121;26;20468;-71
2024/04/23 08:31:03;;;;;;;60.80;6.23;;;;;;;;;;5346128;26;20475;-71
2024/04/23 08:33:34;;;;;;;59.90;6.53;;;;;;;;;;5346147;26;20476;-71
2024/04/23 08:36:02;;;;;;;64.13;6.43;;;;;;;;;;5345925;26;20480;-71
2024/04/23 08:38:28;;;;;;;61.17;6.60;;;;;;;;;;5345944;26;20492;-71
2024/04/23 08:40:57;;;;;;;60.50;6.40;;;;;;;;;;5346221;26;20530;-71
2024/04/23 08:43:33;;;;;;;62.10;6.20;;;;;;;;;;5346384;26;20917;-71
2024/04/23 08:45:59;;;;;;;59.37;6.50;;;;;;;;;;5345538;26;20502;-71
2024/04/23 08:48:29;;;;;;;59.40;5.60;;;;;;;;;;5345276;26;20539;-70
2024/04/23 08:50:58;;;;;;;58.90;5.60;;;;;;;;;;5345590;26;20905;-71
2024/04/23 08:53:29;;;;;;;58.73;5.73;;;;;;;;;;5346122;26;20475;-71
2024/04/23 08:56:00;;;;;;;58.03;5.20;;;;;;;;;;5345895;26;20468;-71
2024/04/23 08:58:27;;;;;;;60.10;5.40;;;;;;;;;;5345374;26;20540;-71
2024/04/23 09:01:00;;;;;;;60.10;5.97;;;;;;;;;;5345442;26;20548;-71
2024/04/23 09:03:31;;;;;;;57.90;5.53;;;;;;;;;;5345741;26;20476;-71
2024/04/23 09:06:02;;;;;;;60.67;5.70;;;;;;;;;;5345526;26;20530;-71
2024/04/23 09:08:28;;;;;;;59.03;6.20;;;;;;;;;;5345103;26;20608;-71
2024/04/23 09:10:57;;;;;;;59.27;5.80;;;;;;;;;;5345602;26;20846;-71
2024/04/23 09:13:23;;;;;;;60.20;5.53;;;;;;;;;;5345483;26;20876;-71
2024/04/23 09:15:52;;;;;;;58.87;5.77;;;;;;;;;;5345714;26;20892;-71
2024/04/23 09:18:19;;;;;;;58.93;5.53;;;;;;;;;;5344831;26;20596;-69
2024/04/23 09:20:48;;;;;;;58.50;5.93;;;;;;;;;;5345004;26;20476;-69
2024/04/23 09:23:17;;;;;;;58.50;4.90;;;;;;;;;;5345405;26;20479;-71
2024/04/23 09:25:46;;;;;;;59.07;5.20;;;;;;;;;;5345172;26;20531;-71
2024/04/23 09:28:20;;;;;;;58.60;5.40;;;;;;;;;;5344510;26;20574;-69
2024/04/23 09:30:49;;;;;;;57.60;4.90;;;;;;;;;;5344627;26;20873;-69
2024/04/23 09:33:22;;;;;;;58.67;4.80;;;;;;;;;;5344767;26;20476;-69
2024/04/23 09:36:01;;;;;;;58.80;5.70;;;;;;;;;;5344748;26;21035;-69
2024/04/23 09:38:33;;;;;;;58.07;4.60;;;;;;;;;;5344054;26;20923;-69
2024/04/23 09:41:02;;;;;;;59.00;5.00;;;;;;;;;;5345112;26;20492;-69
2024/04/23 09:43:28;;;;;;;58.77;5.10;;;;;;;;;;5344485;26;20815;-69
2024/04/23 09:45:57;;;;;;;57.87;4.80;;;;;;;;;;5344393;26;20608;-70
2024/04/23 09:48:28;;;;;;;57.97;4.90;;;;;;;;;;5344122;26;20484;-70
2024/04/23 09:51:02;;;;;;;58.50;5.17;;;;;;;;;;5343442;26;20601;-70
2024/04/23 09:53:33;;;;;;;58.90;5.43;;;;;;;;;;5344390;26;21138;-71
2024/04/23 09:56:02;;;;;;;59.10;4.80;;;;;;;;;;5344669;26;20540;-71
2024/04/23 09:58:28;;;;;;;58.27;4.90;;;;;;;;;;5344346;26;20472;-70
2024/04/23 10:00:58;;;;;;;58.20;5.10;;;;;;;;;;5344820;26;20479;-71
2024/04/23 10:03:25;;;;;;;58.90;5.53;;;;;;;;;;5344514;26;20632;-71
2024/04/23 10:05:54;;;;;;;58.80;5.63;;;;;;;;;;5344039;26;20540;-71
2024/04/23 10:08:23;;;;;;;58.00;5.20;;;;;;;;;;5343892;26;20536;-71
2024/04/23 10:10:57;;;;;;;57.90;4.80;;;;;;;;;;5344495;26;20483;-71
2024/04/23 10:13:26;;;;;;;58.10;5.10;;;;;;;;;;5344437;26;20476;-71
2024/04/23 10:15:58;;;;;;;65.13;5.27;;;;;;;;;;5344952;26;20491;-71
2024/04/23 10:18:32;;;;;;;58.33;4.60;;;;;;;;;;5344114;26;20591;-71
2024/04/23 10:21:05;;;;;;;58.87;5.17;;;;;;;;;;5344208;26;20665;-71
2024/04/23 10:23:32;;;;;;;57.97;4.70;;;;;;;;;;5344223;26;20524;-71
2024/04/23 10:26:03;;;;;;;57.77;4.33;;;;;;;;;;5344044;26;20474;-71
2024/04/23 10:28:29;;;;;;;58.57;4.60;;;;;;;;;;5343354;26;20558;-71
2024/04/23 10:30:58;;;;;;;60.47;5.10;;;;;;;;;;5343596;26;20471;-70
2024/04/23 10:33:30;;;;;;;57.20;4.77;;;;;;;;;;5343566;26;20871;-70
2024/04/23 10:35:59;;;;;;;58.07;4.90;;;;;;;;;;5343560;26;20475;-69
2024/04/23 10:38:28;;;;;;;57.37;4.50;;;;;;;;;;5343293;26;20475;-70
2024/04/23 10:40:57;;;;;;;57.07;4.27;;;;;;;;;;5343261;26;21018;-70
2024/04/23 10:43:26;;;;;;;56.90;4.30;;;;;;;;;;5343385;26;20953;-70
2024/04/23 10:45:55;;;;;;;57.73;4.63;;;;;;;;;;5343060;26;20540;-70
2024/04/23 10:48:25;;;;;;;58.70;5.23;;;;;;;;;;5342843;26;20622;-70
2024/04/23 10:50:55;;;;;;;59.00;5.13;;;;;;;;;;5343441;26;20478;-70
2024/04/23 10:53:22;;;;;;;58.53;4.93;;;;;;;;;;5343018;26;20560;-70
2024/04/23 10:55:52;;;;;;;57.97;4.43;;;;;;;;;;5343301;26;20489;-70
2024/04/23 10:58:21;;;;;;;57.57;4.10;;;;;;;;;;5342781;26;21019;-70
2024/04/23 11:01:01;;;;;;;57.30;4.23;;;;;;;;;;5343285;26;20589;-70
2024/04/23 11:03:28;;;;;;;58.00;4.73;;;;;;;;;;5346032;26;20618;-70
2024/04/23 11:05:57;;;;;;;58.80;5.10;;;;;;;;;;5346616;26;20535;-69
2024/04/23 11:08:23;;;;;;;59.97;4.80;;;;;;;;;;5346542;26;20575;-69
2024/04/23 11:10:53;;;;;;;62.27;5.47;;;;;;;;;;5346383;26;20483;-69
2024/04/23 11:13:26;;;;;;;61.83;5.60;;;;;;;;;;5347280;26;20529;-70
2024/04/23 11:15:58;;;;;;;57.57;4.70;;;;;;;;;;5346743;26;20479;-70
2024/04/23 11:18:25;;;;;;;58.77;4.33;;;;;;;;;;5346264;26;21119;-70
2024/04/23 11:20:56;;;;;;;60.80;4.73;;;;;;;;;;5346764;26;20483;-70
2024/04/23 11:23:23;;;;;;;59.30;4.73;;;;;;;;;;5346616;26;20618;-70
2024/04/23 11:25:52;;;;;;;58.83;4.80;;;;;;;;;;5346407;26;21038;-70
2024/04/23 11:28:18;;;;;;;60.27;5.43;;;;;;;;;;5346355;26;21057;-70
2024/04/23 11:30:56;;;;;;;58.03;4.90;;;;;;;;;;5346727;26;20554;-70
2024/04/23 11:33:25;;;;;;;58.27;5.30;;;;;;;;;;5346682;26;20476;-70
2024/04/23 11:35:54;;;;;;;59.50;4.73;;;;;;;;;;5346301;26;20533;-71
2024/04/23 11:38:22;;;;;;;57.30;4.27;;;;;;;;;;5345893;26;20632;-71
2024/04/23 11:40:49;;;;;;;58.10;5.30;;;;;;;;;;5346312;26;20983;-71
2024/04/23 11:43:19;;;;;;;60.00;4.90;;;;;;;;;;5346482;26;20560;-71
2024/04/23 11:45:47;;;;;;;58.20;4.80;;;;;;;;;;5346342;26;20471;-71
2024/04/23 11:48:16;;;;;;;57.83;5.00;;;;;;;;;;5345957;26;20520;-70
2024/04/23 11:50:46;;;;;;;62.50;5.40;;;;;;;;;;5346051;26;20532;-70
2024/04/23 11:53:14;;;;;;;58.57;4.60;;;;;;;;;;5346340;26;21034;-70
2024/04/23 11:55:41;;;;;;;62.10;5.07;;;;;;;;;;5345737;26;20577;-70
2024/04/23 11:58:10;;;;;;;59.93;4.90;;;;;;;;;;5345479;26;20535;-70
2024/04/23 12:00:38;;;;;;;57.80;4.13;;;;;;;;;;5346420;26;20494;-70
2024/04/23 12:03:07;;;;;;;57.57;4.60;;;;;;;;;;5346627;26;20486;-71
2024/04/23 12:05:34;;;;;;;57.00;3.97;;;;;;;;;;5345738;26;20483;-70
2024/04/23 12:08:06;;;;;;;57.97;4.53;;;;;;;;;;5345541;26;20790;-70
2024/04/23 12:10:33;;;;;;;57.37;4.50;;;;;;;;;;5345792;26;20485;-71
2024/04/23 12:13:03;;;;;;;57.50;4.43;;;;;;;;;;5345779;26;20473;-70
2024/04/23 12:15:30;;;;;;;58.20;5.13;;;;;;;;;;5345048;26;20477;-70
2024/04/23 12:17:58;;;;;;;58.67;4.67;;;;;;;;;;5345337;26;20501;-71
2024/04/23 12:20:25;;;;;;;57.23;4.03;;;;;;;;;;5345740;26;20486;-71
2024/04/23 12:22:53;;;;;;;57.60;4.47;;;;;;;;;;5345754;26;20561;-70
2024/04/23 12:25:22;;;;;;;57.67;4.63;;;;;;;;;;5345277;26;21254;-71
2024/04/23 12:27:51;;;;;;;58.60;4.83;;;;;;;;;;5345087;26;20491;-71
2024/04/23 12:30:17;;;;;;;57.87;4.97;;;;;;;;;;5345768;26;20483;-71
2024/04/23 12:32:49;;;;;;;59.87;4.77;;;;;;;;;;5345341;26;20527;-70
2024/04/23 12:35:18;;;;;;;57.33;4.23;;;;;;;;;;5345792;26;20592;-70
2024/04/23 12:37:47;;;;;;;57.63;4.97;;;;;;;;;;5344937;26;20500;-70
2024/04/23 12:40:16;;;;;;;57.70;4.67;;;;;;;;;;5345318;26;20552;-70
2024/04/23 12:42:47;;;;;;;60.23;4.87;;;;;;;;;;5345340;26;20854;-70
2024/04/23 12:45:14;;;;;;;58.47;5.00;;;;;;;;;;5345115;26;20931;-70
2024/04/23 12:47:42;;;;;;;57.40;4.53;;;;;;;;;;5345069;26;20480;-70
2024/04/23 12:50:12;;;;;;;57.80;5.00;;;;;;;;;;5345195;26;20495;-70
2024/04/23 12:52:41;;;;;;;58.57;4.90;;;;;;;;;;5345173;26;20612;-70
2024/04/23 12:55:10;;;;;;;60.23;5.17;;;;;;;;;;5345323;26;20483;-70
2024/04/23 12:57:36;;;;;;;58.07;4.70;;;;;;;;;;5344921;26;20476;-70
2024/04/23 13:00:08;;;;;;;58.43;5.23;;;;;;;;;;5345447;26;20816;-70
2024/04/23 13:02:34;;;;;;;59.10;5.40;;;;;;;;;;5345039;26;20666;-70
2024/04/23 13:05:03;;;;;;;58.17;4.70;;;;;;;;;;5344956;26;20544;-70
2024/04/23 13:07:29;;;;;;;57.97;4.70;;;;;;;;;;5344499;26;20471;-70
2024/04/23 13:09:58;;;;;;;57.87;4.50;;;;;;;;;;5344715;26;20523;-70
2024/04/23 13:12:24;;;;;;;62.10;4.70;;;;;;;;;;5345619;26;20487;-70
2024/04/23 13:14:53;;;;;;;57.73;4.70;;;;;;;;;;5344654;26;20468;-70
2024/04/23 13:17:21;;;;;;;57.77;4.43;;;;;;;;;;5344448;26;20479;-70
2024/04/23 13:19:50;;;;;;;57.57;4.63;;;;;;;;;;5344645;26;20834;-70
2024/04/23 13:22:17;;;;;;;58.50;4.73;;;;;;;;;;5344754;26;20472;-70
2024/04/23 13:24:45;;;;;;;57.70;4.43;;;;;;;;;;5344783;26;20559;-70
2024/04/23 13:27:12;;;;;;;58.70;5.03;;;;;;;;;;5343106;26;21384;-70
2024/04/23 13:29:40;;;;;;;58.10;5.07;;;;;;;;;;5344363;26;20537;-70
2024/04/23 13:32:08;;;;;;;57.37;4.50;;;;;;;;;;5344892;26;20884;-70
2024/04/23 13:34:39;;;;;;;57.77;4.20;;;;;;;;;;5344523;26;20973;-70
2024/04/23 13:37:05;;;;;;;57.40;4.57;;;;;;;;;;5344145;26;20980;-70
2024/04/23 13:39:34;;;;;;;58.40;4.47;;;;;;;;;;5344513;26;20472;-70
2024/04/23 13:42:01;;;;;;;58.77;5.13;;;;;;;;;;5344232;26;20604;-70
2024/04/23 13:44:30;;;;;;;57.43;4.60;;;;;;;;;;5344309;26;20536;-70
2024/04/23 13:46:56;;;;;;;58.13;5.03;;;;;;;;;;5343575;26;20479;-70
2024/04/23 13:49:25;;;;;;;57.83;4.97;;;;;;;;;;5344483;26;20483;-70
2024/04/23 13:51:54;;;;;;;60.40;4.80;;;;;;;;;;5344323;26;20598;-70
2024/04/23 13:54:22;;;;;;;57.20;4.50;;;;;;;;;;5344828;26;21078;-70
2024/04/23 13:56:48;;;;;;;57.40;3.97;;;;;;;;;;5343782;26;20636;-70
2024/04/23 13:59:19;;;;;;;58.53;5.27;;;;;;;;;;5344121;26;21085;-70
2024/04/23 14:01:45;;;;;;;57.90;4.73;;;;;;;;;;5344103;26;20594;-70
2024/04/23 14:04:14;;;;;;;57.40;4.37;;;;;;;;;;5344679;26;20479;-70
2024/04/23 14:06:40;;;;;;;57.70;4.50;;;;;;;;;;5344052;26;20479;-70
2024/04/23 14:09:12;;;;;;;58.20;4.57;;;;;;;;;;5343954;26;20577;-70
2024/04/23 14:11:38;;;;;;;58.80;4.70;;;;;;;;;;5344321;26;20476;-70
2024/04/23 14:14:07;;;;;;;59.10;5.60;;;;;;;;;;5343981;26;20535;-70
2024/04/23 14:16:33;;;;;;;59.03;5.67;;;;;;;;;;5343777;26;20487;-70
2024/04/23 14:19:01;;;;;;;58.70;4.93;;;;;;;;;;5343406;26;20643;-70
2024/04/23 14:21:28;;;;;;;58.57;4.60;;;;;;;;;;5343774;26;20483;-70
2024/04/23 14:23:57;;;;;;;57.97;4.97;;;;;;;;;;5343648;26;20491;-71
2024/04/23 14:26:27;;;;;;;58.17;4.80;;;;;;;;;;5343730;26;20485;-71
2024/04/23 14:28:56;;;;;;;59.70;5.07;;;;;;;;;;5343917;26;20533;-71
2024/04/23 14:31:22;;;;;;;58.60;5.00;;;;;;;;;;5343868;26;20479;-70
2024/04/23 14:33:51;;;;;;;60.90;5.33;;;;;;;;;;5343864;26;20468;-71
2024/04/23 14:36:17;;;;;;;58.40;4.87;;;;;;;;;;5343582;26;20624;-71
2024/04/23 14:38:48;;;;;;;58.67;4.90;;;;;;;;;;5346017;26;20483;-71
2024/04/23 14:41:14;;;;;;;57.90;4.70;;;;;;;;;;5346944;26;20527;-71
2024/04/23 14:43:45;;;;;;;57.93;4.60;;;;;;;;;;5346831;26;20610;-71